Cook, Joan
United StatesWomanBorn 19622007 – 2026Runner id 78031
Events
53
43 race dates
Best pace
8.217
km/h · 2010
Best finish
4th
of 31 · 2025
Distance raced
9,438
km · splits not double-counted
Pace over time
km/h · higher is faster
Pace over time: 45 races and 8 splits from 2007 to 2026, ranging from 2.51 to 9.80 kilometres per hour, where higher is faster. A second, age-graded series is drawn above it; the gap between the two is the age credit.
- Actual pace
- Age-graded pace
- Split of a race already plotted
Results
| Date | Event | Distance | Result | Pace km/h | Placing |
|---|---|---|---|---|---|
| 2007-11-17 | 50mi | 10:18:59 h | 7.800 | 481/1078 | |
| 2008-11-22 | 50mi | 10:50:53 h | 7.418 | 504/927 | |
| 2009-07-18 | Lone Ranger 24 hr Ultra-MarathonUnited States | 24h | 95.260 km | 3.969 | 71/152 |
| 2009-11-21 | 50mi | 11:00:25 h | 7.311 | 630/1016 | |
| 2010-05-06 | Peak Ultra 30 Mile Endurance RunUnited States | 30mi | 10:18:00 h | 4.687 | 26/29 |
| 2010-10-16 | 50mi | 9:47:32 h | 8.217 | 61/93 | |
| 2011-05-13 | 48h | 161.517 km | 3.365 | 17/31 | |
| 2011-09-04 | 12h | 49.889 km | 4.157 | 121/136 | |
| 2013-03-23 | New Jersey Ultra Festival 50 Mile RaceUnited States | 50mi | 11:13:49 h | 7.165 | 32/56 |
| 2013-05-16 | 72h | 217.261 km | 3.018 | 25/43 | |
| 2013-05-16 | 3 Days at the Fair 72 Hour Race - 48h SplitUnited StatesIAU BronzeSplit of a longer race in this career; not counted again in the distance total*PA | 48h | 164.153 km | 3.420 | 25/43 |
| 2013-05-16 | 3 Days at the Fair 72 Hour Race - 24h SplitUnited StatesIAU BronzeSplit of a longer race in this career; not counted again in the distance total*PA | 24h | 104.607 km | 4.359 | 21/40 |
| 2014-05-15 | 72h | 241.401 km | 3.353 | 31/62 | |
| 2014-05-15 | 3 Days at the Fair 72 Hour Race - 48h SplitUnited StatesIAU BronzeSplit of a longer race in this career; not counted again in the distance total*Nicholson, PA | 48h | 162.543 km | 3.386 | 35/61 |
| 2014-11-22 | 50mi | 10:58:04 h | 7.337 | 582/808 | |
| 2015-03-21 | New Jersey Ultra Festival 50 km RaceUnited States | 50km | 6:45:55 h | 7.391 | 27/34 |
| 2015-05-14 | 3 Days at the Fair 72 Hour RaceUnited States | 72h | 218.870 km | 3.040 | 42/68 |
| 2015-05-14 | 3 Days at the Fair 72 Hour Race - 48h SplitUnited StatesSplit of a longer race in this career; not counted again in the distance total | 48h | 204.386 km | 4.258 | 23/63 |
| 2015-05-14 | 3 Days at the Fair 72 Hour Race - 24h SplitUnited StatesSplit of a longer race in this career; not counted again in the distance total | 24h | 115.872 km | 4.828 | 28/63 |
| 2015-11-07 | 12h | 85.295 km | 7.108 | 6/17 | |
| 2016-05-13 | 48h | 185.074 km | 3.856 | 15/45 | |
| 2016-05-13 | 3 Days at the Fair 48 Hour Race - 24h SplitUnited StatesIAU BronzeSplit of a longer race in this career; not counted again in the distance total | 24h | 111.044 km | 4.627 | 19/44 |
| 2016-07-23 | 12h | 70.006 km | 5.834 | 12/34 | |
| 2016-11-11 | 12h | 86.904 km | 7.242 | 6/15 | |
| 2016-11-11 | NJ One Day 12 Hour Race - 50mi SplitUnited StatesIAU BronzeSplit of a longer race in this career; not counted again in the distance total*Nicholson, PA | 50mi | 10:41:58 h | 7.521 | 7/7 |
| 2017-05-15 | 6d | 429.694 km | 2.984 | 18/41 | |
| 2017-07-22 | Montour 24 Endurance Runs - 6hrs runUnited States | 6h | 45.866 km | 7.644 | 8/8 |
| 2018-05-14 | 6d | 386.242 km | 2.682 | 20/39 | |
| 2018-07-28 | 50mi | 12:41:00 h | 6.344 | 6/22 | |
| 2018-11-10 | 6h | 48.280 km | 8.047 | 3/3 | |
| 2019-05-09 | 10d | 683.971 km | 2.850 | 9/20 | |
| 2019-05-09 | 3 Days at the Fair 10 Days Race - 6d SplitUnited StatesSplit of a longer race in this career; not counted again in the distance total*Nicholson, PA | 6d | 424.866 km | 2.950 | 8/20 |
| 2019-07-13 | 50mi | 12:55:00 h | 6.230 | 12/17 | |
| 2019-09-07 | 100mi | 25:54:21 h | 6.212 | 5/9 | |
| 2019-09-07 | 100km | 14:48:06 h | 6.756 | 21/47 | |
| 2019-09-07 | 50km | 6:36:05 h | 7.574 | 17/52 | |
| 2020-03-21 | 50mi | 10:44:08 h | 7.495 | 11/12 | |
| 2020-09-28 | 6d | 410.382 km | 2.850 | 13/19 | |
| 2021-05-10 | 6d | 460.272 km | 3.196 | 22/46 | |
| 2021-07-10 | 50mi | 12:06:05 h | 6.649 | 15/20 | |
| 2021-09-11 | 50mi | 10:55:43 h | 7.363 | 13/43 | |
| 2021-12-31 | Hainesport Hundred 100 Mile Endurance RunUnited States | 100mi | 26:31:09 h | 6.069 | 12/17 |
| 2022-05-09 | 6d | 445.788 km | 3.096 | 13/42 | |
| 2022-07-14 | Last Annual Vol-State 500K Endurance RunUnited States | 500km | 8d 06:54:19 h | 2.514 | 55/86 |
| 2023-05-08 | 3 Days at the Fair 6 Days RaceUnited States | 6d | 429.694 km | 2.984 | 16/43 |
| 2023-07-13 | 500km | 7d 10:10:53 h | 2.806 | 44/93 | |
| 2024-07-13 | Viaduct Trail Ultramarathon 50 MileUnited States | 50mi | 12:33:00 h | 6.412 | 9/18 |
| 2024-10-12 | 100mi | 25:45:35 h | 6.248 | 4/7 | |
| 2025-05-12 | 3 Days at the Fair 6 Days RaceUnited States | 6d | 410.382 km | 2.850 | 10/24 |
| 2025-07-10 | 500km | 7d 01:58:00 h | 2.942 | 20/92 |
Showing 1–50 of 53